createdAt,value
2018-10-11T11:48:20.023Z,74.00
2018-10-11T11:49:19.989Z,74.48
2018-10-11T11:50:19.993Z,73.80
2018-10-11T11:51:19.960Z,73.13
2018-10-11T11:52:19.943Z,72.55
2018-10-11T11:53:19.931Z,73.90
2018-10-11T11:54:19.917Z,73.42
2018-10-11T11:55:19.916Z,73.22
2018-10-11T11:56:19.892Z,74.77
2018-10-11T11:57:19.878Z,74.38
2018-10-11T11:58:19.874Z,73.74
2018-10-11T11:59:19.850Z,73.26
2018-10-11T12:00:19.856Z,73.74
2018-10-11T12:01:19.835Z,73.26
2018-10-11T12:02:19.813Z,72.78
2018-10-11T12:03:19.800Z,72.68
2018-10-11T12:04:19.787Z,71.81
2018-10-11T12:05:19.779Z,70.94
2018-10-11T12:06:19.774Z,71.75
2018-10-11T12:07:19.754Z,71.66
2018-10-11T12:08:19.735Z,70.72
2018-10-11T12:09:19.726Z,69.46
2018-10-11T12:10:19.755Z,68.88
2018-10-11T12:11:19.722Z,68.79
2018-10-11T12:12:19.688Z,68.53
2018-10-11T12:13:19.684Z,68.88
2018-10-11T12:14:19.676Z,69.66
2018-10-11T12:15:19.656Z,68.69
2018-10-11T12:16:19.681Z,68.82
2018-10-11T12:17:19.631Z,68.08
2018-10-11T12:18:19.624Z,68.95
2018-10-11T12:19:19.606Z,69.01
2018-10-11T12:20:19.598Z,69.15
2018-10-11T12:21:19.589Z,68.73
2018-10-11T12:22:19.591Z,68.91
2018-10-11T12:23:19.561Z,69.89
2018-10-11T12:24:19.557Z,71.01
2018-10-11T12:25:19.541Z,70.82
2018-10-11T12:26:19.538Z,70.47
2018-10-11T12:27:19.540Z,70.11
2018-10-11T12:28:19.569Z,70.40
2018-10-11T12:29:19.496Z,69.24
2018-10-11T12:30:19.488Z,69.89
2018-10-11T12:31:19.476Z,70.18
2018-10-11T12:32:19.467Z,69.01
2018-10-11T12:33:19.470Z,69.11
2018-10-11T12:34:19.439Z,68.76
2018-10-11T12:35:19.512Z,68.76
2018-10-11T12:36:19.431Z,68.89
2018-10-11T12:37:19.408Z,68.40
2018-10-11T12:38:19.418Z,67.50
2018-10-11T12:39:19.383Z,66.99
2018-10-11T12:40:19.377Z,66.53
2018-10-11T12:41:19.363Z,65.85
2018-10-11T12:42:19.359Z,66.50
2018-10-11T12:43:19.342Z,64.65
2018-10-11T12:44:19.370Z,64.36
2018-10-11T12:45:19.380Z,63.75
2018-10-11T12:46:19.315Z,65.59
2018-10-11T12:47:19.298Z,65.01
2018-10-11T12:48:19.288Z,65.89
2018-10-11T12:49:19.287Z,66.05
2018-10-11T12:50:19.289Z,67.24
2018-10-11T12:51:19.256Z,67.44
2018-10-11T12:52:19.246Z,68.34
2018-10-11T12:53:19.235Z,66.24
2018-10-11T12:54:19.273Z,65.43
2018-10-11T12:55:19.242Z,68.12
2018-10-11T12:56:19.309Z,68.40
2018-10-11T12:57:20.844Z,68.70
2018-10-11T12:58:19.191Z,68.21
2018-10-11T12:59:19.174Z,68.76
2018-10-11T13:00:19.167Z,69.11
2018-10-11T13:01:21.128Z,70.76
2018-10-11T13:02:19.155Z,70.72
2018-10-11T13:03:19.186Z,70.37
2018-10-11T13:04:19.127Z,69.31
2018-10-11T13:05:19.112Z,70.47
2018-10-11T13:06:19.104Z,70.18
2018-10-11T13:07:19.115Z,70.04
2018-10-11T13:08:19.080Z,70.34
2018-10-11T13:09:19.144Z,70.92
2018-10-11T13:10:19.057Z,71.84
2018-10-11T13:11:19.046Z,71.46
2018-10-11T13:12:19.038Z,70.59
2018-10-11T13:13:19.037Z,70.78
2018-10-11T13:14:19.014Z,71.46
2018-10-11T13:15:19.008Z,71.56
2018-10-11T13:16:18.996Z,72.62
2018-10-11T13:17:18.984Z,71.72
2018-10-11T13:18:18.989Z,72.30
2018-10-11T13:19:18.960Z,72.68
2018-10-11T13:20:18.947Z,72.49
2018-10-11T13:21:18.935Z,72.52
2018-10-11T13:22:18.927Z,73.20
2018-10-11T13:23:18.928Z,72.72
2018-10-11T13:24:18.904Z,73.20
2018-10-11T13:25:18.893Z,73.30
2018-10-11T13:26:18.884Z,73.20
2018-10-11T13:27:18.871Z,73.26
2018-10-11T13:28:18.882Z,72.88
2018-10-11T13:29:18.852Z,73.46
2018-10-11T13:30:18.839Z,74.04
2018-10-11T13:31:18.825Z,73.36
2018-10-11T13:32:18.816Z,73.46
2018-10-11T13:33:18.801Z,74.42
2018-10-11T13:34:18.820Z,74.81
2018-10-11T13:35:18.840Z,75.10
2018-10-11T13:36:18.776Z,74.13
2018-10-11T13:37:18.760Z,75.10
2018-10-11T13:38:18.750Z,75.20
2018-10-11T13:39:18.738Z,75.78
2018-10-11T13:40:18.748Z,75.84
2018-10-11T13:41:18.803Z,75.06
2018-10-11T13:42:18.705Z,74.58
2018-10-11T13:43:18.691Z,74.77
2018-10-11T13:44:18.720Z,74.58
2018-10-11T13:45:18.669Z,75.35
2018-10-11T13:46:18.658Z,75.64
2018-10-11T13:47:18.657Z,75.64
2018-10-11T13:48:18.637Z,76.22
2018-10-11T13:49:18.625Z,76.22
2018-10-11T13:50:18.626Z,76.42
2018-10-11T13:51:18.600Z,75.54
2018-10-11T13:52:21.684Z,75.35
2018-10-11T13:53:21.324Z,76.22
2018-10-11T13:54:18.602Z,77.09
2018-10-11T13:55:18.553Z,77.67
2018-10-11T13:56:18.542Z,75.84
2018-10-11T13:57:20.895Z,76.28
2018-10-11T13:58:18.519Z,75.31
2018-10-11T13:59:18.506Z,75.22
2018-10-11T14:00:18.513Z,75.60
2018-10-11T14:01:18.486Z,76.18
2018-10-11T14:02:18.473Z,76.09
2018-10-11T14:03:18.461Z,75.79
2018-10-11T14:04:18.452Z,75.79
2018-10-11T14:05:18.452Z,77.25
2018-10-11T14:06:18.427Z,76.18
2018-10-11T14:07:18.415Z,75.89
2018-10-11T14:08:18.408Z,76.09
2018-10-11T14:09:18.395Z,76.37
2018-10-11T14:10:18.402Z,75.89
2018-10-11T14:11:18.371Z,75.70
2018-10-11T14:12:18.359Z,76.47
2018-10-11T14:13:20.485Z,75.41
2018-10-11T14:14:18.332Z,75.93
2018-10-11T14:15:18.333Z,75.93
2018-10-11T14:16:18.307Z,74.48
2018-10-11T14:17:18.304Z,73.90
2018-10-11T14:18:18.284Z,74.48
2018-10-11T14:19:18.270Z,74.29
2018-10-11T14:20:18.277Z,73.71
2018-10-11T14:21:18.247Z,74.10
2018-10-11T14:22:18.238Z,74.00
2018-10-11T14:23:18.232Z,74.38
2018-10-11T14:24:18.236Z,73.26
2018-10-11T14:25:18.223Z,73.84
2018-10-11T14:26:18.195Z,73.26
2018-10-11T14:27:18.176Z,74.23
2018-10-11T14:28:18.163Z,72.91
2018-10-11T14:29:18.157Z,72.78
2018-10-11T14:30:18.142Z,73.07
2018-10-11T14:31:18.150Z,74.36
2018-10-11T14:32:18.117Z,73.39
2018-10-11T14:33:18.110Z,73.84
2018-10-11T14:34:18.096Z,73.94
2018-10-11T14:35:18.086Z,73.36
2018-10-11T14:36:18.124Z,73.94
2018-10-11T14:37:18.140Z,73.39
2018-10-11T14:38:18.053Z,74.23
2018-10-11T14:39:18.042Z,73.39
2018-10-11T14:40:18.026Z,72.68
2018-10-11T14:41:18.016Z,72.78
2018-10-11T14:42:18.026Z,73.65
2018-10-11T14:43:18.023Z,73.61
2018-10-11T14:44:17.979Z,73.84
2018-10-11T14:45:17.968Z,73.80
2018-10-11T14:46:17.959Z,73.13
2018-10-11T14:47:17.959Z,73.22
2018-10-11T14:48:17.938Z,74.19
2018-10-11T14:49:17.925Z,73.42
2018-10-11T14:50:17.912Z,73.52
2018-10-11T14:51:17.925Z,72.94
2018-10-11T14:52:17.910Z,74.10
2018-10-11T14:53:17.878Z,74.48
2018-10-11T14:54:17.872Z,74.38
2018-10-11T14:55:17.850Z,75.26
2018-10-11T14:56:17.846Z,75.16
2018-10-11T14:57:17.897Z,75.54
2018-10-11T14:58:17.818Z,76.12
2018-10-11T14:59:17.804Z,76.90
2018-10-11T15:00:17.807Z,75.51
2018-10-11T15:01:17.783Z,75.51
2018-10-11T15:02:17.769Z,76.95
2018-10-11T15:03:17.870Z,75.60
2018-10-11T15:04:17.751Z,77.73
2018-10-11T15:05:17.800Z,78.02
2018-10-11T15:06:17.722Z,78.99
2018-10-11T15:07:17.713Z,78.69
2018-10-11T15:08:17.716Z,78.89
2018-10-11T15:09:17.696Z,77.73
2018-10-11T15:10:17.681Z,78.94
2018-10-11T15:11:17.719Z,79.04
2018-10-11T15:12:17.667Z,79.33
2018-10-11T15:13:17.644Z,78.75
2018-10-11T15:14:17.628Z,79.43
2018-10-11T15:15:17.616Z,79.52
2018-10-11T15:16:17.603Z,80.49
2018-10-11T15:17:17.608Z,80.26
2018-10-11T15:18:17.579Z,80.35
2018-10-11T15:19:17.565Z,80.20
2018-10-11T15:20:17.554Z,80.16
2018-10-11T15:21:17.543Z,81.07
2018-10-11T15:22:17.544Z,81.07
2018-10-11T15:23:17.517Z,81.22
2018-10-11T15:24:17.505Z,80.45
2018-10-11T15:25:17.497Z,81.22
2018-10-11T15:26:17.481Z,81.02
2018-10-11T15:27:17.513Z,81.02
2018-10-11T15:28:17.455Z,81.32
2018-10-11T15:29:17.466Z,81.02
2018-10-11T15:30:17.432Z,81.51
2018-10-11T15:31:17.418Z,82.09
2018-10-11T15:32:17.413Z,81.80
2018-10-11T15:33:17.406Z,82.09
2018-10-11T15:34:17.382Z,82.09
2018-10-11T15:35:17.374Z,83.25
2018-10-11T15:36:17.358Z,81.41
2018-10-11T15:37:17.367Z,82.48
2018-10-11T15:38:17.332Z,81.70
2018-10-11T15:39:17.321Z,82.28
2018-10-11T15:40:17.308Z,82.48
2018-10-11T15:41:17.295Z,82.18
2018-10-11T15:42:17.282Z,81.80
2018-10-11T15:43:17.282Z,82.18
2018-10-11T15:44:17.262Z,82.62
2018-10-11T15:45:17.248Z,81.51
2018-10-11T15:46:17.232Z,82.34
2018-10-11T15:47:17.218Z,82.62
2018-10-11T15:48:17.217Z,82.72
2018-10-11T15:49:17.192Z,83.11
2018-10-11T15:50:17.177Z,82.82
2018-10-11T15:51:17.167Z,82.67
2018-10-11T15:52:17.186Z,82.28
2018-10-11T15:53:17.155Z,82.76
2018-10-11T15:54:17.129Z,84.01
2018-10-11T15:55:17.114Z,83.25
2018-10-11T15:56:17.105Z,82.18
2018-10-11T15:57:17.090Z,83.25
2018-10-11T15:58:17.095Z,83.05
2018-10-11T15:59:17.067Z,82.38
2018-10-11T16:00:17.062Z,83.15
2018-10-11T16:01:17.039Z,82.18
2018-10-11T16:02:17.028Z,83.50
2018-10-11T16:03:17.051Z,83.30
2018-10-11T16:04:16.997Z,83.20
2018-10-11T16:05:16.990Z,82.92
2018-10-11T16:06:16.978Z,82.43
2018-10-11T16:07:16.964Z,83.01
2018-10-11T16:08:16.951Z,83.01
2018-10-11T16:09:17.088Z,83.11
2018-10-11T16:10:16.924Z,82.72
2018-10-11T16:11:16.910Z,82.24
2018-10-11T16:12:16.895Z,81.85
2018-10-11T16:13:16.884Z,81.09
2018-10-11T16:14:16.883Z,81.85
2018-10-11T16:15:16.857Z,81.09
2018-10-11T16:16:16.848Z,80.99
2018-10-11T16:17:16.835Z,81.09
2018-10-11T16:18:16.821Z,81.18
2018-10-11T16:19:16.822Z,80.89
2018-10-11T16:20:16.791Z,80.79
2018-10-11T16:21:16.786Z,81.09
2018-10-11T16:22:16.769Z,80.66
2018-10-11T16:23:16.755Z,81.27
2018-10-11T16:24:16.759Z,80.76
2018-10-11T16:25:16.732Z,81.04
2018-10-11T16:26:16.715Z,80.94
2018-10-11T16:27:16.698Z,80.85
2018-10-11T16:28:16.688Z,81.04
2018-10-11T16:29:16.676Z,80.85
2018-10-11T16:30:16.677Z,80.85
2018-10-11T16:31:16.650Z,81.33
2018-10-11T16:32:16.676Z,80.46
2018-10-11T16:33:16.621Z,80.18
2018-10-11T16:34:16.607Z,80.37
2018-10-11T16:35:16.609Z,80.66
2018-10-11T16:36:16.583Z,80.94
2018-10-11T16:37:16.567Z,80.76
2018-10-11T16:38:16.555Z,80.91
2018-10-11T16:39:16.585Z,81.01
2018-10-11T16:40:16.543Z,80.71
2018-10-11T16:41:16.513Z,80.91
2018-10-11T16:42:16.499Z,81.10
2018-10-11T16:43:16.485Z,80.62
2018-10-11T16:44:16.470Z,80.81
2018-10-11T16:45:16.478Z,81.68
2018-10-11T16:46:16.445Z,80.91
2018-10-11T16:47:16.433Z,81.20
2018-10-11T16:48:16.420Z,81.10
2018-10-11T16:49:16.412Z,81.87
2018-10-11T16:50:16.425Z,81.39
2018-10-11T16:51:16.376Z,81.87
2018-10-11T16:52:16.369Z,81.93
2018-10-11T16:53:16.356Z,82.12
2018-10-11T16:54:16.338Z,82.02
2018-10-11T16:55:16.341Z,82.41
2018-10-11T16:56:16.308Z,82.60
2018-10-11T16:57:16.297Z,82.89
2018-10-11T16:58:16.280Z,82.12
2018-10-11T16:59:16.279Z,82.79
2018-10-11T17:00:16.280Z,82.79
2018-10-11T17:01:16.240Z,82.89
2018-10-11T17:02:16.223Z,82.98
2018-10-11T17:03:16.207Z,83.08
2018-10-11T17:04:16.339Z,82.98
2018-10-11T17:05:16.199Z,82.89
2018-10-11T17:06:16.172Z,82.79
2018-10-11T17:07:16.153Z,83.18
2018-10-11T17:08:16.139Z,83.75
2018-10-11T17:09:16.126Z,82.89
2018-10-11T17:10:16.131Z,82.89
2018-10-11T17:11:16.094Z,82.12
2018-10-11T17:12:16.091Z,82.89
2018-10-11T17:13:16.070Z,83.28
2018-10-11T17:14:16.054Z,83.04
2018-10-11T17:15:16.053Z,84.10
2018-10-11T17:16:16.022Z,84.00
2018-10-11T17:17:16.022Z,84.58
2018-10-11T17:18:16.007Z,84.48
2018-10-11T17:19:15.979Z,84.39
2018-10-11T17:20:15.983Z,84.39
2018-10-11T17:21:15.954Z,84.97
2018-10-11T17:22:15.947Z,84.67
2018-10-11T17:23:15.933Z,85.31
2018-10-11T17:24:15.908Z,85.88
2018-10-11T17:25:15.910Z,86.85
2018-10-11T17:26:15.880Z,86.85
2018-10-11T17:27:15.865Z,87.23
2018-10-11T17:28:15.860Z,87.04
2018-10-11T17:29:15.838Z,86.65
2018-10-11T17:30:15.840Z,86.56
2018-10-11T17:31:15.812Z,86.75
2018-10-11T17:32:15.793Z,86.65
2018-10-11T17:33:15.783Z,86.75
2018-10-11T17:34:15.764Z,88.10
2018-10-11T17:35:15.785Z,87.81
2018-10-11T17:36:15.742Z,88.29
2018-10-11T17:37:15.729Z,88.39
2018-10-11T17:38:15.713Z,88.53
2018-10-11T17:39:15.693Z,88.57
2018-10-11T17:40:15.700Z,87.81
2018-10-11T17:41:15.664Z,87.62
2018-10-11T17:42:15.697Z,87.90
2018-10-11T17:43:15.631Z,88.53
2018-10-11T17:44:15.621Z,88.63
2018-10-11T17:45:15.605Z,88.44
2018-10-11T17:46:15.608Z,88.00
2018-10-11T17:47:15.576Z,89.40
2018-10-11T17:48:15.560Z,89.78
2018-10-11T17:49:15.545Z,89.11
2018-10-11T17:50:15.585Z,89.88
2018-10-11T17:51:15.552Z,90.17
2018-10-11T17:52:15.501Z,90.75
2018-10-11T17:53:15.485Z,91.13
2018-10-11T17:54:15.471Z,91.37
2018-10-11T17:55:15.456Z,91.75
2018-10-11T17:56:24.357Z,92.05
2018-10-11T17:57:15.428Z,92.52
2018-10-11T17:58:15.412Z,92.72
2018-10-11T17:59:15.400Z,92.81
2018-10-11T18:00:15.384Z,93.77
2018-10-11T18:01:15.367Z,94.06
2018-10-11T18:02:15.369Z,94.16
2018-10-11T18:03:15.364Z,94.06
2018-10-11T18:04:15.320Z,94.26
2018-10-11T18:05:15.308Z,94.26
2018-10-11T18:06:15.292Z,94.98
2018-10-11T18:07:15.296Z,95.36
2018-10-11T18:08:15.261Z,95.26
2018-10-11T18:09:15.257Z,95.21
2018-10-11T18:10:15.229Z,95.21
2018-10-11T18:11:15.220Z,94.26
2018-10-11T18:12:15.204Z,94.73
2018-10-11T18:13:15.203Z,94.93
2018-10-11T18:14:15.173Z,95.12
2018-10-11T18:15:15.157Z,94.93
2018-10-11T18:16:15.188Z,95.40
2018-10-11T18:17:15.131Z,95.21
2018-10-11T18:18:15.126Z,95.79
2018-10-11T18:19:15.095Z,96.32
2018-10-11T18:20:15.080Z,96.51
2018-10-11T18:21:15.081Z,96.13
2018-10-11T18:22:15.052Z,95.31
2018-10-11T18:23:15.075Z,95.60
2018-10-11T18:24:15.022Z,95.98
2018-10-11T18:25:15.007Z,95.70
2018-10-11T18:26:14.988Z,95.75
2018-10-11T18:27:14.983Z,95.84
2018-10-11T18:28:14.976Z,96.42
2018-10-11T18:29:14.964Z,96.42
2018-10-11T18:30:14.927Z,95.94
2018-10-11T18:31:14.919Z,96.22
2018-10-11T18:32:14.902Z,96.42
2018-10-11T18:33:14.900Z,96.51
2018-10-11T18:34:14.869Z,97.09
2018-10-11T18:35:14.854Z,96.80
